createdAt,value
2019-02-06T00:01:22.411Z,15.57
2019-02-06T00:03:52.797Z,14.07
2019-02-06T00:06:22.566Z,15.47
2019-02-06T00:08:52.636Z,13.87
2019-02-06T00:11:23.000Z,16.10
2019-02-06T00:13:53.507Z,14.37
2019-02-06T00:16:23.384Z,14.73
2019-02-06T00:18:53.075Z,13.43
2019-02-06T00:21:23.375Z,13.87
2019-02-06T00:23:53.221Z,12.00
2019-02-06T00:26:22.884Z,14.53
2019-02-06T00:28:52.539Z,13.07
2019-02-06T00:31:23.124Z,12.90
2019-02-06T00:33:53.502Z,12.73
2019-02-06T00:36:23.894Z,12.23
2019-02-06T00:38:53.966Z,13.27
2019-02-06T00:41:23.641Z,13.33
2019-02-06T00:43:54.171Z,12.10
2019-02-06T00:46:23.897Z,11.67
2019-02-06T00:48:53.556Z,12.33
2019-02-06T00:51:23.251Z,12.07
2019-02-06T00:53:52.988Z,11.27
2019-02-06T00:56:23.421Z,11.63
2019-02-06T00:58:53.204Z,10.93
2019-02-06T01:01:23.548Z,13.60
2019-02-06T01:03:54.083Z,11.03
2019-02-06T01:06:24.144Z,11.00
2019-02-06T01:08:54.895Z,10.23
2019-02-06T01:11:24.642Z,10.40
2019-02-06T01:13:55.031Z,11.60
2019-02-06T01:16:24.985Z,11.23
2019-02-06T01:18:55.330Z,11.67
2019-02-06T01:21:25.364Z,11.50
2019-02-06T01:23:55.741Z,12.10
2019-02-06T01:26:25.501Z,10.27
2019-02-06T01:28:55.965Z,11.70
2019-02-06T01:31:28.949Z,10.53
2019-02-06T01:33:59.309Z,11.70
2019-02-06T01:36:29.279Z,11.37
2019-02-06T01:38:58.937Z,11.77
2019-02-06T01:41:29.266Z,11.33
2019-02-06T01:43:59.666Z,10.73
2019-02-06T01:46:30.187Z,9.93
2019-02-06T01:48:59.915Z,9.77
2019-02-06T01:51:30.191Z,9.77
2019-02-06T01:54:03.377Z,9.53
2019-02-06T01:59:30.594Z,9.57
2019-02-06T02:02:05.956Z,9.27
2019-02-06T02:04:50.257Z,10.43
2019-02-06T02:07:44.978Z,8.47
2019-02-06T02:10:15.632Z,8.68
2019-02-06T02:12:59.227Z,8.20
2019-02-06T02:15:29.701Z,7.97
2019-02-06T02:18:12.932Z,8.50
2019-02-06T02:20:45.265Z,7.53
2019-02-06T02:23:16.495Z,7.10
2019-02-06T02:25:46.804Z,7.40
2019-02-06T02:28:17.675Z,9.30
2019-02-06T02:33:53.428Z,7.53
2019-02-06T02:36:24.329Z,7.83
2019-02-06T02:39:17.256Z,9.40
2019-02-06T02:41:46.880Z,8.30
2019-02-06T02:44:16.588Z,8.67
2019-02-06T02:46:46.838Z,8.33
2019-02-06T02:49:16.596Z,7.40
2019-02-06T02:51:46.236Z,6.87
2019-02-06T02:54:15.846Z,8.60
2019-02-06T02:56:45.468Z,8.13
2019-02-06T02:59:15.549Z,7.90
2019-02-06T03:02:01.992Z,6.73
2019-02-06T03:04:36.403Z,6.20
2019-02-06T03:07:06.145Z,7.23
2019-02-06T03:09:35.968Z,7.33
2019-02-06T03:12:06.537Z,8.27
2019-02-06T03:14:36.227Z,7.92
2019-02-06T03:17:06.499Z,8.50
2019-02-06T03:19:36.229Z,9.70
2019-02-06T03:22:05.870Z,8.07
2019-02-06T03:24:35.935Z,9.27
2019-02-06T03:27:05.634Z,9.43
2019-02-06T03:29:35.264Z,9.20
2019-02-06T03:32:04.877Z,10.73
2019-02-06T03:34:34.483Z,10.50
2019-02-06T03:37:04.181Z,10.50
2019-02-06T03:39:34.828Z,10.30
2019-02-06T03:42:04.572Z,9.23
2019-02-06T03:44:34.147Z,9.17
2019-02-06T03:47:03.788Z,9.07
2019-02-06T03:49:33.717Z,9.23
2019-02-06T03:52:04.795Z,10.35
2019-02-06T03:54:34.609Z,11.17
2019-02-06T03:57:04.896Z,10.67
2019-02-06T03:59:34.575Z,11.50
2019-02-06T04:02:04.841Z,10.17
2019-02-06T04:04:35.193Z,10.60
2019-02-06T04:07:04.907Z,12.50
2019-02-06T04:09:34.513Z,12.30
2019-02-06T04:12:04.127Z,11.03
2019-02-06T04:14:33.886Z,12.23
2019-02-06T04:17:03.508Z,10.43
2019-02-06T04:19:33.115Z,9.50
2019-02-06T04:22:02.751Z,10.37
2019-02-06T04:24:33.021Z,8.60
2019-02-06T04:27:02.746Z,8.30
2019-02-06T04:29:32.364Z,9.83
2019-02-06T04:32:01.980Z,13.00
2019-02-06T04:34:32.249Z,12.80
2019-02-06T04:37:06.576Z,16.10
2019-02-06T04:39:34.568Z,13.20
2019-02-06T04:42:04.631Z,12.20
2019-02-06T04:44:34.254Z,11.40
2019-02-06T04:47:03.890Z,11.50
2019-02-06T04:49:34.421Z,13.10
2019-02-06T04:52:05.681Z,13.60
2019-02-06T04:54:36.026Z,12.33
2019-02-06T04:57:05.701Z,12.27
2019-02-06T04:59:35.319Z,12.07
2019-02-06T05:02:04.921Z,13.20
2019-02-06T05:04:34.543Z,11.60
2019-02-06T05:07:04.648Z,10.63
2019-02-06T05:09:34.957Z,8.87
2019-02-06T05:12:04.762Z,9.70
2019-02-06T05:14:35.016Z,9.50
2019-02-06T05:17:04.792Z,10.83
2019-02-06T05:19:35.351Z,9.65
2019-02-06T05:22:05.287Z,8.33
2019-02-06T05:24:34.857Z,8.30
2019-02-06T05:27:05.128Z,10.13
2019-02-06T05:29:34.813Z,11.45
2019-02-06T05:32:04.416Z,9.53
2019-02-06T05:34:34.845Z,13.07
2019-02-06T05:37:04.642Z,14.57
2019-02-06T05:39:34.227Z,14.43
2019-02-06T05:42:04.475Z,15.03
2019-02-06T05:44:34.844Z,16.00
2019-02-06T05:47:05.304Z,15.40
2019-02-06T05:49:34.997Z,12.85
2019-02-06T05:52:05.378Z,10.10
2019-02-06T05:54:35.061Z,11.13
2019-02-06T05:57:04.680Z,12.67
2019-02-06T05:59:35.572Z,14.50
2019-02-06T06:02:05.202Z,15.93
2019-02-06T06:04:34.799Z,17.53
2019-02-06T06:07:04.805Z,19.30
2019-02-06T06:09:34.387Z,19.53
2019-02-06T06:12:03.994Z,19.90
2019-02-06T06:14:34.296Z,20.88
2019-02-06T06:17:04.011Z,19.30
2019-02-06T06:19:33.611Z,17.90
2019-02-06T06:22:03.603Z,18.83
2019-02-06T06:24:33.236Z,18.67
2019-02-06T06:27:23.555Z,17.20
2019-02-06T06:29:53.167Z,18.27
2019-02-06T06:32:23.280Z,16.20
2019-02-06T06:34:53.816Z,18.13
2019-02-06T06:37:24.110Z,17.87
2019-02-06T06:39:54.483Z,18.53
2019-02-06T06:42:24.360Z,17.37
2019-02-06T06:44:54.072Z,18.27
2019-02-06T06:47:24.257Z,17.77
2019-02-06T06:49:54.555Z,17.77
2019-02-06T06:52:24.254Z,18.33
2019-02-06T06:54:53.869Z,18.70
2019-02-06T06:57:23.480Z,19.27
2019-02-06T06:59:55.573Z,20.13
2019-02-06T07:02:24.357Z,18.77
2019-02-06T07:04:53.999Z,18.40
2019-02-06T07:07:24.258Z,20.17
2019-02-06T07:09:54.071Z,20.13
2019-02-06T07:12:23.672Z,20.57
2019-02-06T07:14:53.260Z,21.80
2019-02-06T07:17:23.233Z,20.23
2019-02-06T07:19:52.811Z,18.83
2019-02-06T07:22:22.451Z,20.13
2019-02-06T07:24:52.096Z,19.73
2019-02-06T07:27:21.684Z,18.20
2019-02-06T07:29:51.332Z,19.63
2019-02-06T07:32:20.924Z,17.43
2019-02-06T07:34:51.202Z,17.43
2019-02-06T07:37:20.891Z,18.57
2019-02-06T07:39:50.812Z,19.20
2019-02-06T07:42:21.247Z,18.98
2019-02-06T07:44:51.631Z,18.03
2019-02-06T07:47:21.228Z,18.27
2019-02-06T07:49:50.877Z,19.77
2019-02-06T07:52:20.518Z,19.80
2019-02-06T07:54:50.127Z,20.07
2019-02-06T07:57:20.480Z,20.63
2019-02-06T07:59:50.475Z,20.63
2019-02-06T08:02:20.311Z,19.57
2019-02-06T08:04:50.207Z,17.97
2019-02-06T08:07:19.825Z,19.73
2019-02-06T08:09:49.431Z,19.83
2019-02-06T08:12:19.382Z,20.40
2019-02-06T08:14:49.504Z,19.33
2019-02-06T08:17:19.819Z,23.47
2019-02-06T08:19:51.772Z,24.40
2019-02-06T08:22:21.472Z,20.33
2019-02-06T08:24:51.058Z,21.87
2019-02-06T08:27:20.719Z,21.00
2019-02-06T08:29:51.125Z,25.27
2019-02-06T08:32:20.812Z,24.23
2019-02-06T08:34:50.407Z,23.43
2019-02-06T08:37:20.381Z,25.13
2019-02-06T08:39:49.987Z,21.90
2019-02-06T08:42:20.067Z,23.07
2019-02-06T08:44:49.668Z,23.87
2019-02-06T08:47:19.923Z,21.67
2019-02-06T08:49:49.648Z,21.47
2019-02-06T08:52:20.006Z,17.40
2019-02-06T08:54:50.235Z,20.77
2019-02-06T08:57:20.015Z,19.67
2019-02-06T08:59:50.263Z,19.43
2019-02-06T09:02:20.902Z,17.43
2019-02-06T09:04:56.027Z,19.87
2019-02-06T09:07:22.669Z,18.57
2019-02-06T09:09:52.374Z,21.03
2019-02-06T09:12:23.151Z,19.93
2019-02-06T09:14:52.927Z,18.40
2019-02-06T09:17:22.503Z,20.07
2019-02-06T09:19:52.091Z,18.70
2019-02-06T09:22:21.695Z,17.53
2019-02-06T09:24:51.299Z,17.40
2019-02-06T09:27:21.393Z,17.53
2019-02-06T09:29:51.001Z,17.23
2019-02-06T09:32:20.643Z,17.73
2019-02-06T09:34:50.252Z,15.27
2019-02-06T09:37:19.846Z,15.50
2019-02-06T09:39:49.484Z,13.87
2019-02-06T09:42:20.243Z,15.80
2019-02-06T09:44:50.081Z,14.73
2019-02-06T09:47:19.720Z,16.43
2019-02-06T09:49:50.076Z,14.27
2019-02-06T09:52:20.580Z,14.67
2019-02-06T09:54:50.283Z,14.33
2019-02-06T09:57:20.375Z,13.53
2019-02-06T09:59:50.626Z,14.10
2019-02-06T10:02:20.988Z,11.80
2019-02-06T10:04:50.690Z,11.97
2019-02-06T10:07:21.152Z,12.77
2019-02-06T10:09:50.871Z,24.37
2019-02-06T10:12:20.684Z,31.87
2019-02-06T10:14:50.967Z,18.67
2019-02-06T10:17:20.643Z,22.07
2019-02-06T10:19:50.287Z,11.03
2019-02-06T10:22:19.883Z,9.97
2019-02-06T10:24:49.463Z,10.20
2019-02-06T10:27:19.070Z,10.90
2019-02-06T10:29:48.635Z,9.70
2019-02-06T10:32:19.021Z,10.63
2019-02-06T10:34:49.898Z,10.90
2019-02-06T10:37:19.567Z,10.90
2019-02-06T10:39:49.207Z,10.87
2019-02-06T10:42:20.148Z,10.00
2019-02-06T10:44:50.453Z,10.40
2019-02-06T10:47:20.905Z,9.07
2019-02-06T10:49:50.647Z,10.43
2019-02-06T10:52:20.302Z,7.60
2019-02-06T10:54:50.310Z,7.17
2019-02-06T10:57:20.375Z,6.73
2019-02-06T10:59:50.088Z,6.27
2019-02-06T11:02:19.684Z,5.03
2019-02-06T11:04:49.338Z,5.67
2019-02-06T11:07:19.460Z,4.67
2019-02-06T11:09:49.475Z,6.60
2019-02-06T11:12:19.083Z,4.77
2019-02-06T11:14:48.713Z,5.30
2019-02-06T11:17:18.519Z,5.70
2019-02-06T11:19:48.152Z,7.13
2019-02-06T11:22:18.580Z,6.97
2019-02-06T11:24:49.003Z,7.07
2019-02-06T11:27:19.319Z,6.87
2019-02-06T11:29:49.078Z,6.40
2019-02-06T11:32:20.804Z,4.92
2019-02-06T11:34:50.474Z,4.47
2019-02-06T11:37:20.728Z,4.43
2019-02-06T11:39:57.681Z,3.83
2019-02-06T11:42:22.423Z,4.13
2019-02-06T11:44:52.794Z,3.40
2019-02-06T11:47:22.568Z,3.70
2019-02-06T11:49:54.648Z,3.30
2019-02-06T11:52:24.767Z,5.42
2019-02-06T11:54:54.366Z,6.33
2019-02-06T11:57:24.373Z,3.77
2019-02-06T11:59:54.024Z,3.60
2019-02-06T12:02:36.736Z,3.00
2019-02-06T12:04:56.488Z,3.37
2019-02-06T12:07:26.142Z,3.10
2019-02-06T12:09:55.730Z,2.67
2019-02-06T12:12:25.383Z,3.37
2019-02-06T12:14:54.966Z,2.73
2019-02-06T12:17:24.564Z,2.17
2019-02-06T12:19:54.215Z,1.73
2019-02-06T12:22:24.152Z,2.40
2019-02-06T12:24:53.723Z,2.10
2019-02-06T12:27:23.336Z,1.73
2019-02-06T12:29:52.984Z,2.07
2019-02-06T12:32:22.586Z,1.80
2019-02-06T12:34:52.192Z,2.10
2019-02-06T12:37:21.971Z,1.40
2019-02-06T12:39:52.335Z,1.77
2019-02-06T12:42:22.040Z,2.03
2019-02-06T12:44:52.319Z,1.70
2019-02-06T12:47:22.769Z,1.60
2019-02-06T12:49:52.460Z,1.53
2019-02-06T12:52:22.729Z,1.57
2019-02-06T12:54:53.360Z,1.60
2019-02-06T12:57:23.023Z,1.60
2019-02-06T12:59:54.357Z,1.50
2019-02-06T13:02:23.943Z,2.20
2019-02-06T13:04:54.218Z,1.70
2019-02-06T13:07:23.932Z,1.23
2019-02-06T13:09:53.532Z,1.40
2019-02-06T13:12:27.306Z,2.00
2019-02-06T13:14:56.649Z,1.67
2019-02-06T13:17:26.232Z,1.43
2019-02-06T13:19:55.937Z,1.80
2019-02-06T13:22:26.402Z,2.03
2019-02-06T13:24:56.736Z,1.93
2019-02-06T13:27:26.446Z,2.10
2019-02-06T13:29:56.029Z,2.13
2019-02-06T13:32:25.628Z,2.13
2019-02-06T13:34:55.236Z,2.10
2019-02-06T13:37:25.243Z,2.53
2019-02-06T13:39:54.874Z,1.73
2019-02-06T13:42:24.784Z,2.37
2019-02-06T13:44:54.428Z,2.07
2019-02-06T13:47:24.028Z,2.10
2019-02-06T13:49:53.659Z,2.50
2019-02-06T13:52:23.754Z,3.27
2019-02-06T13:54:54.028Z,2.10
2019-02-06T13:57:33.484Z,2.63
2019-02-06T13:59:55.167Z,2.10
2019-02-06T14:02:24.783Z,2.27
2019-02-06T14:04:54.351Z,1.67
2019-02-06T14:07:23.977Z,1.97
2019-02-06T14:09:53.564Z,2.50
2019-02-06T14:12:23.205Z,3.27
2019-02-06T14:14:52.791Z,1.83
2019-02-06T14:17:22.426Z,3.10
2019-02-06T14:19:52.678Z,2.10
2019-02-06T14:22:23.039Z,1.83
2019-02-06T14:25:06.036Z,2.03
2019-02-06T14:27:54.689Z,2.17
2019-02-06T14:30:46.115Z,2.60
2019-02-06T14:33:37.562Z,3.07
2019-02-06T14:36:26.226Z,2.40
2019-02-06T14:39:20.026Z,2.33
2019-02-06T14:41:56.464Z,2.90
2019-02-06T14:44:38.809Z,2.20
2019-02-06T14:47:27.533Z,2.07
2019-02-06T14:50:18.926Z,2.70
2019-02-06T14:53:04.640Z,2.13
2019-02-06T14:55:44.816Z,2.67
2019-02-06T14:58:33.547Z,2.43
2019-02-06T15:01:09.645Z,2.50
2019-02-06T15:03:56.922Z,2.53
2019-02-06T15:06:34.015Z,2.70
2019-02-06T15:09:09.780Z,2.57
2019-02-06T15:11:52.075Z,2.83
2019-02-06T15:15:15.470Z,2.40
2019-02-06T15:18:04.199Z,1.77
2019-02-06T15:20:53.829Z,1.90
2019-02-06T15:23:38.847Z,2.50
2019-02-06T15:26:27.602Z,2.43
2019-02-06T15:29:19.248Z,3.70
2019-02-06T15:31:52.919Z,3.30
2019-02-06T15:34:50.531Z,2.70
2019-02-06T15:37:35.631Z,3.33
2019-02-06T15:40:15.432Z,3.00
2019-02-06T15:43:04.109Z,3.70
2019-02-06T15:45:39.827Z,3.20
2019-02-06T15:48:46.198Z,3.47
2019-02-06T15:51:33.913Z,3.22
2019-02-06T15:54:18.095Z,3.73
2019-02-06T15:57:12.581Z,3.37
2019-02-06T15:59:46.479Z,3.90
2019-02-06T16:03:02.714Z,4.73
2019-02-06T16:06:35.489Z,4.58
2019-02-06T16:09:33.048Z,3.97
2019-02-06T16:12:08.967Z,4.00
2019-02-06T16:15:35.673Z,5.33
2019-02-06T16:18:11.360Z,4.28
2019-02-06T16:21:06.013Z,4.40
2019-02-06T16:23:53.732Z,4.77
2019-02-06T16:26:45.836Z,4.93
2019-02-06T16:29:31.887Z,5.63
2019-02-06T16:32:30.913Z,5.60
2019-02-06T16:35:22.813Z,7.13
2019-02-06T16:38:15.533Z,6.43
2019-02-06T16:41:03.200Z,6.97
2019-02-06T16:43:54.638Z,7.40
2019-02-06T16:46:38.252Z,7.30
2019-02-06T16:49:26.912Z,7.70
2019-02-06T16:52:18.752Z,8.20
2019-02-06T16:55:32.344Z,7.83
2019-02-06T16:58:29.975Z,8.10
2019-02-06T17:01:10.697Z,7.17
2019-02-06T17:03:59.373Z,8.97
2019-02-06T17:06:44.956Z,7.73
2019-02-06T17:09:42.456Z,7.73
2019-02-06T17:12:43.099Z,7.13
2019-02-06T17:15:33.151Z,8.00
2019-02-06T17:18:36.730Z,6.10
2019-02-06T17:21:31.623Z,6.27
2019-02-06T17:24:20.268Z,5.57
2019-02-06T17:27:24.317Z,5.27
2019-02-06T17:30:11.540Z,5.87
2019-02-06T17:32:48.623Z,5.70
2019-02-06T17:35:25.011Z,5.93
2019-02-06T17:38:19.912Z,5.73
2019-02-06T17:41:02.331Z,5.50
2019-02-06T17:43:50.928Z,4.37
2019-02-06T17:46:24.109Z,4.40
2019-02-06T17:49:28.049Z,4.00
2019-02-06T17:52:02.007Z,3.70
2019-02-06T17:54:50.656Z,2.87
2019-02-06T17:57:20.375Z,2.27
2019-02-06T17:59:50.083Z,2.27
2019-02-06T18:02:20.312Z,2.17
2019-02-06T18:04:49.915Z,2.20
2019-02-06T18:07:19.735Z,2.57
2019-02-06T18:09:49.341Z,3.23
2019-02-06T18:12:26.163Z,2.40
2019-02-06T18:14:50.355Z,2.17
2019-02-06T18:17:20.348Z,3.00
2019-02-06T18:19:49.959Z,3.43
2019-02-06T18:22:22.152Z,7.97
2019-02-06T18:24:50.919Z,7.33
2019-02-06T18:27:20.519Z,3.70
2019-02-06T18:29:50.850Z,2.73
2019-02-06T18:32:20.856Z,0.87
2019-02-06T18:34:50.480Z,3.03
2019-02-06T18:37:20.115Z,2.43
2019-02-06T18:39:49.859Z,1.27
2019-02-06T18:42:20.547Z,0.93
2019-02-06T18:44:50.184Z,1.93
2019-02-06T18:47:21.253Z,2.10
2019-02-06T18:49:51.044Z,2.40
2019-02-06T18:52:20.919Z,2.73
2019-02-06T18:54:51.244Z,8.07
2019-02-06T18:57:21.321Z,2.20
2019-02-06T18:59:50.934Z,1.93
2019-02-06T19:02:20.522Z,1.70
2019-02-06T19:04:50.128Z,1.40
2019-02-06T19:07:20.364Z,1.30
2019-02-06T19:09:51.666Z,1.40
2019-02-06T19:12:21.279Z,1.10
2019-02-06T19:14:50.871Z,1.70
2019-02-06T19:17:20.480Z,2.00
2019-02-06T19:19:50.097Z,1.23
2019-02-06T19:22:19.699Z,1.13
2019-02-06T19:24:50.151Z,1.90
2019-02-06T19:27:19.864Z,1.93
2019-02-06T19:29:49.456Z,1.00
2019-02-06T19:32:19.101Z,1.77
2019-02-06T19:34:48.665Z,3.47
2019-02-06T19:37:18.911Z,1.47
2019-02-06T19:39:48.630Z,1.67
2019-02-06T19:42:18.945Z,2.50
2019-02-06T19:44:48.591Z,1.57
2019-02-06T19:47:18.913Z,2.30
2019-02-06T19:49:48.604Z,1.93
2019-02-06T19:52:18.919Z,3.07
2019-02-06T19:54:48.526Z,4.57
2019-02-06T19:57:19.147Z,2.90
2019-02-06T19:59:48.713Z,4.73
2019-02-06T20:02:19.093Z,5.67
2019-02-06T20:04:48.671Z,7.27
2019-02-06T20:07:18.583Z,9.03
2019-02-06T20:09:48.192Z,9.60
2019-02-06T20:12:18.523Z,11.33
2019-02-06T20:14:48.329Z,11.87
2019-02-06T20:17:18.751Z,8.93
2019-02-06T20:19:48.337Z,9.23
2019-02-06T20:22:18.690Z,7.50
2019-02-06T20:24:49.016Z,11.37
2019-02-06T20:27:19.019Z,8.50
2019-02-06T20:29:48.947Z,9.17
2019-02-06T20:32:19.291Z,9.60
2019-02-06T20:34:48.919Z,8.00
2019-02-06T20:37:19.244Z,7.77
2019-02-06T20:39:48.860Z,7.07
2019-02-06T20:42:18.443Z,6.50
2019-02-06T20:44:48.032Z,7.27
2019-02-06T20:47:17.679Z,5.90
2019-02-06T20:49:47.905Z,6.07
2019-02-06T20:52:18.454Z,5.60
2019-02-06T20:54:48.049Z,6.47
2019-02-06T20:57:17.704Z,6.23
2019-02-06T20:59:47.299Z,6.27
2019-02-06T21:02:18.141Z,6.47
2019-02-06T21:04:48.423Z,6.33
2019-02-06T21:07:18.487Z,7.37
2019-02-06T21:09:50.784Z,6.70
2019-02-06T21:12:19.359Z,4.63
2019-02-06T21:14:48.959Z,4.80
2019-02-06T21:17:18.651Z,35.07
2019-02-06T21:19:48.294Z,72.50
2019-02-06T21:22:18.399Z,19.27
2019-02-06T21:24:48.724Z,8.83
2019-02-06T21:27:19.016Z,7.60
2019-02-06T21:29:48.639Z,19.17
2019-02-06T21:32:18.356Z,4.30
2019-02-06T21:34:47.963Z,2.73
2019-02-06T21:37:18.280Z,3.43
2019-02-06T21:39:47.901Z,3.23
2019-02-06T21:42:18.015Z,2.85
2019-02-06T21:44:47.644Z,2.80
2019-02-06T21:47:17.236Z,4.97
2019-02-06T21:49:47.040Z,3.33
2019-02-06T21:52:16.695Z,3.57
2019-02-06T21:54:46.272Z,4.50
2019-02-06T21:57:15.919Z,3.83
2019-02-06T21:59:45.512Z,4.53
2019-02-06T22:02:15.126Z,3.60
2019-02-06T22:04:44.796Z,4.13
2019-02-06T22:07:14.372Z,3.80
2019-02-06T22:09:44.926Z,4.27
2019-02-06T22:12:14.675Z,3.93
2019-02-06T22:14:44.571Z,3.80
2019-02-06T22:17:14.877Z,3.73
2019-02-06T22:19:44.611Z,3.73
2019-02-06T22:22:14.296Z,4.07
2019-02-06T22:24:44.210Z,4.33
2019-02-06T22:27:13.848Z,4.50
2019-02-06T22:29:44.335Z,4.27
2019-02-06T22:32:14.095Z,4.63
2019-02-06T22:34:44.437Z,3.80
2019-02-06T22:37:14.179Z,3.53
2019-02-06T22:39:43.912Z,5.50
2019-02-06T22:42:14.247Z,4.93
2019-02-06T22:44:44.712Z,5.50
2019-02-06T22:47:15.344Z,5.70
2019-02-06T22:49:45.028Z,5.93
2019-02-06T22:52:15.298Z,4.93
2019-02-06T22:54:44.957Z,4.77
2019-02-06T22:57:14.703Z,4.67
2019-02-06T22:59:44.355Z,5.30
2019-02-06T23:02:14.019Z,5.20
2019-02-06T23:04:43.704Z,5.57
2019-02-06T23:07:13.347Z,4.97
2019-02-06T23:09:43.003Z,5.87
2019-02-06T23:12:12.779Z,5.80
2019-02-06T23:14:43.220Z,5.70
2019-02-06T23:17:12.976Z,7.20
2019-02-06T23:19:43.341Z,6.40
2019-02-06T23:22:13.104Z,6.33
2019-02-06T23:24:42.739Z,7.43
2019-02-06T23:27:12.364Z,6.13
2019-02-06T23:29:42.696Z,6.77
2019-02-06T23:32:12.445Z,5.90
2019-02-06T23:34:42.095Z,6.20
2019-02-06T23:37:12.432Z,6.90
2019-02-06T23:39:42.503Z,5.83
2019-02-06T23:42:12.883Z,7.03
2019-02-06T23:44:42.624Z,6.43
2019-02-06T23:47:12.265Z,5.77
2019-02-06T23:49:42.626Z,6.90
2019-02-06T23:52:13.181Z,6.80
2019-02-06T23:54:42.916Z,7.83
2019-02-06T23:57:13.351Z,7.17
2019-02-06T23:59:43.125Z,7.03
